createdAt,value
2019-05-03T17:30:35.128Z,9.93
2019-05-03T17:33:07.158Z,9.87
2019-05-03T17:35:36.112Z,9.86
2019-05-03T17:38:05.320Z,9.78
2019-05-03T17:40:37.795Z,9.74
2019-05-03T17:43:19.825Z,9.73
2019-05-03T17:45:55.750Z,9.74
2019-05-03T17:48:24.251Z,9.73
2019-05-03T17:50:52.699Z,9.71
2019-05-03T17:53:37.585Z,9.71
2019-05-03T17:56:15.252Z,9.70
2019-05-03T17:58:48.303Z,9.69
2019-05-03T18:01:27.471Z,9.66
2019-05-03T18:04:05.711Z,9.67
2019-05-03T18:06:29.313Z,9.68
2019-05-03T18:09:04.319Z,9.64
2019-05-03T18:11:39.892Z,9.60
2019-05-03T18:14:08.385Z,9.49
2019-05-03T18:16:36.780Z,9.48
2019-05-03T18:19:07.106Z,9.47
2019-05-03T18:21:35.774Z,9.44
2019-05-03T18:24:04.939Z,9.40
2019-05-03T18:26:35.384Z,7.87
2019-05-03T18:29:05.634Z,9.41
2019-05-03T18:31:33.972Z,9.37
2019-05-03T18:34:02.416Z,9.41
2019-05-03T18:36:32.322Z,9.40
2019-05-03T18:39:01.089Z,9.38
2019-05-03T18:41:29.578Z,9.33
2019-05-03T18:43:59.760Z,9.33
2019-05-03T18:46:29.738Z,9.41
2019-05-03T18:48:58.170Z,9.37
2019-05-03T18:51:26.654Z,9.34
2019-05-03T18:53:55.157Z,9.39
2019-05-03T18:56:25.156Z,9.38
2019-05-03T18:58:54.377Z,9.34
2019-05-03T19:01:22.938Z,9.32
2019-05-03T19:03:53.086Z,9.31
2019-05-03T19:06:21.715Z,9.27
2019-05-03T19:09:07.093Z,9.22
2019-05-03T19:11:37.326Z,9.20
2019-05-03T19:14:14.986Z,9.15
2019-05-03T19:16:45.527Z,9.19
2019-05-03T19:19:15.808Z,9.22
2019-05-03T19:21:44.512Z,9.20
2019-05-03T19:24:12.935Z,9.17
2019-05-03T19:26:41.360Z,9.16
2019-05-03T19:29:09.767Z,9.13
2019-05-03T19:31:38.253Z,9.08
2019-05-03T19:34:06.765Z,9.10
2019-05-03T19:36:37.234Z,9.09
2019-05-03T19:39:06.824Z,9.04
2019-05-03T19:41:35.314Z,9.04
2019-05-03T19:44:04.294Z,9.06
2019-05-03T19:46:34.990Z,9.07
2019-05-03T19:49:04.917Z,9.03
2019-05-03T19:51:34.414Z,9.04
2019-05-03T19:54:05.416Z,9.01
2019-05-03T19:56:33.908Z,8.95
2019-05-03T19:59:04.664Z,8.95
2019-05-03T20:01:37.399Z,8.94
2019-05-03T20:04:07.557Z,8.95
2019-05-03T20:06:56.363Z,8.93
2019-05-03T20:09:28.971Z,8.89
2019-05-03T20:12:00.482Z,8.92
2019-05-03T20:14:29.351Z,8.93
2019-05-03T20:17:34.562Z,8.92
2019-05-03T20:19:56.561Z,8.90
2019-05-03T20:22:24.814Z,8.88
2019-05-03T20:24:55.138Z,8.87
2019-05-03T20:27:24.423Z,8.86
2019-05-03T20:29:53.043Z,8.81
2019-05-03T20:32:21.496Z,8.79
2019-05-03T20:34:50.018Z,8.81
2019-05-03T20:37:18.438Z,8.81
2019-05-03T20:39:46.998Z,8.83
2019-05-03T20:42:17.098Z,8.82
2019-05-03T20:44:49.558Z,8.75
2019-05-03T20:47:19.636Z,8.73
2019-05-03T20:49:49.761Z,8.69
2019-05-03T20:52:18.143Z,8.72
2019-05-03T20:54:46.574Z,8.76
2019-05-03T20:57:14.961Z,8.74
2019-05-03T20:59:48.650Z,8.75
2019-05-03T21:02:15.333Z,8.71
2019-05-03T21:04:43.822Z,8.60
2019-05-03T21:07:12.349Z,8.55
2019-05-03T21:09:40.716Z,8.55
2019-05-03T21:12:09.174Z,8.50
2019-05-03T21:14:37.659Z,8.38
2019-05-03T21:17:10.756Z,8.39
2019-05-03T21:19:41.355Z,8.34
2019-05-03T21:22:11.424Z,8.30
2019-05-03T21:24:47.416Z,8.28
2019-05-03T21:27:15.934Z,8.24
2019-05-03T21:29:55.299Z,8.33
2019-05-03T21:32:25.143Z,8.33
2019-05-03T21:34:55.644Z,8.38
2019-05-03T21:37:24.479Z,8.36
2019-05-03T21:39:54.775Z,8.34
2019-05-03T21:42:23.365Z,8.36
2019-05-03T21:44:51.789Z,8.22
2019-05-03T21:47:21.992Z,8.17
2019-05-03T21:49:52.185Z,8.13
2019-05-03T21:52:20.737Z,8.11
2019-05-03T21:54:49.260Z,8.02
2019-05-03T21:57:17.654Z,7.96
2019-05-03T21:59:46.257Z,7.97
2019-05-03T22:02:15.400Z,8.04
2019-05-03T22:04:44.451Z,7.98
2019-05-03T22:07:13.174Z,8.02
2019-05-03T22:12:29.340Z,7.95
2019-05-03T22:15:14.986Z,7.85
2019-05-03T22:17:54.016Z,7.96
2019-05-03T22:20:26.507Z,7.76
2019-05-03T22:22:59.506Z,7.74
2019-05-03T22:25:29.545Z,7.73
2019-05-03T22:27:57.997Z,7.76
2019-05-03T22:30:26.930Z,7.80
2019-05-03T22:32:55.428Z,7.88
2019-05-03T22:35:25.074Z,7.73
2019-05-03T22:37:55.070Z,7.67
2019-05-03T22:40:25.143Z,7.46
2019-05-03T22:42:53.736Z,7.40
2019-05-03T22:45:22.238Z,7.52
2019-05-03T22:47:50.636Z,7.45
2019-05-03T22:50:19.061Z,7.47
2019-05-03T22:52:47.547Z,7.47
2019-05-03T22:55:16.091Z,7.35
2019-05-03T22:57:44.503Z,7.35
2019-05-03T23:00:14.646Z,7.28
2019-05-03T23:02:45.420Z,7.21
2019-05-03T23:05:13.525Z,7.25
2019-05-03T23:07:41.918Z,7.38
2019-05-03T23:10:10.415Z,7.41
2019-05-03T23:12:38.801Z,7.44
2019-05-03T23:15:11.314Z,7.44
2019-05-03T23:17:39.715Z,7.47
2019-05-03T23:20:09.953Z,7.28
2019-05-03T23:22:38.379Z,7.21
2019-05-03T23:25:07.430Z,7.11
2019-05-03T23:27:35.881Z,7.09
2019-05-03T23:30:05.808Z,7.07
2019-05-03T23:32:35.037Z,6.97
2019-05-03T23:35:04.957Z,7.11
2019-05-03T23:37:34.628Z,7.09
2019-05-03T23:40:05.265Z,7.05
2019-05-03T23:42:35.034Z,6.90
2019-05-03T23:45:04.949Z,6.89
2019-05-03T23:47:47.032Z,6.98
2019-05-03T23:50:17.538Z,6.78
2019-05-03T23:52:46.106Z,6.88
2019-05-03T23:55:25.505Z,6.85
2019-05-03T23:57:55.431Z,6.74
